Printer, Kentucky
Current Conditions -  °F | °C
As of 7:55 PM on Saturday 20 Dec 2014 (Local Time) from KPBX Reporting Station
Overcast Overcast  
Wind Chill: 29°   Ceiling: 4600
Heat Index: 33°   Visibility: 10mi
Dew Point: 27°   Wind: 5mph
Humidity: 76%   Direction: 10°N
Pressure: 30.23"   Gusts: NA
Location:  37.53°N, 82.75°W
Report Text: KPBX 210055Z AUTO 01004KT 10SM OVC046 01/M03 A3023 RMK AO2 T00081030
Loading
Personal Weather Stations






























Interactive Weather Map New forecast layout! Learn more

10-Day Weather Forecast

Advertisements
Track Severe Weather on mobile